Time;durP1;ratioP1;P1;durP2;ratioP2;P2;SDS_P1;SDS_P2;PMS_P1;PMS_P2;Temp;Humidity;BMP_temperature;BMP_pressure;BME280_temperature;BME280_humidity;BME280_pressure;Samples;Min_cycle;Max_cycle;Signal;HPM_P1;HPM_P2
2021/03/24 00:01:07;;;;;;;17.20;13.77;;;6.90;99.90;;;;;;5094886;28;20173;-67
2021/03/24 00:03:32;;;;;;;19.45;14.27;;;7.00;99.90;;;;;;5094662;28;20424;-67
2021/03/24 00:05:58;;;;;;;16.73;12.93;;;7.00;99.90;;;;;;5094619;28;20563;-67
2021/03/24 00:08:23;;;;;;;18.33;13.17;;;7.00;99.90;;;;;;5094544;28;20678;-68
2021/03/24 00:10:50;;;;;;;19.47;15.30;;;7.00;99.90;;;;;;5094573;28;20678;-67
2021/03/24 00:13:16;;;;;;;18.48;13.10;;;7.00;99.90;;;;;;5094382;28;20231;-68
2021/03/24 00:15:42;;;;;;;19.60;14.00;;;7.00;99.90;;;;;;5094060;28;20204;-68
2021/03/24 00:18:08;;;;;;;17.00;13.73;;;7.00;99.90;;;;;;5094033;28;20440;-67
2021/03/24 00:20:36;;;;;;;19.33;13.02;;;6.90;99.90;;;;;;5094325;28;20172;-67
2021/03/24 00:23:02;;;;;;;17.02;13.05;;;6.90;99.90;;;;;;5094216;28;20551;-67
2021/03/24 00:25:28;;;;;;;16.88;13.30;;;6.90;99.90;;;;;;5092885;28;20661;-67
2021/03/24 00:27:54;;;;;;;17.60;13.90;;;6.90;99.90;;;;;;5094241;28;20275;-68
2021/03/24 00:30:24;;;;;;;18.10;14.00;;;6.90;99.90;;;;;;5092948;28;20173;-69
2021/03/24 00:32:51;;;;;;;16.60;13.73;;;6.80;99.90;;;;;;5094059;28;20428;-69
2021/03/24 00:35:17;;;;;;;20.90;16.08;;;6.90;99.90;;;;;;5094184;28;20179;-67
2021/03/24 00:37:42;;;;;;;18.17;14.27;;;6.70;99.90;;;;;;5094058;28;20172;-67
2021/03/24 00:40:12;;;;;;;18.70;15.47;;;6.80;99.90;;;;;;5094033;28;20168;-67
2021/03/24 00:42:37;;;;;;;18.73;14.80;;;6.70;99.90;;;;;;5093923;28;20177;-69
2021/03/24 00:45:07;;;;;;;20.03;14.20;;;6.60;99.90;;;;;;5093828;28;20235;-68
2021/03/24 00:47:34;;;;;;;16.17;13.05;;;6.60;99.90;;;;;;5093762;28;20208;-68
2021/03/24 00:50:00;;;;;;;21.27;12.88;;;6.60;99.90;;;;;;5093927;28;20240;-67
2021/03/24 00:52:25;;;;;;;19.35;15.15;;;6.60;99.90;;;;;;5094393;28;20691;-67
2021/03/24 00:54:51;;;;;;;18.83;15.40;;;6.60;99.90;;;;;;5093754;28;20192;-68
2021/03/24 00:57:17;;;;;;;19.03;13.90;;;6.60;99.90;;;;;;5094373;28;20289;-67
2021/03/24 00:59:42;;;;;;;20.70;14.93;;;6.60;99.90;;;;;;5093715;28;20192;-67
2021/03/24 01:02:08;;;;;;;19.97;14.67;;;6.60;99.90;;;;;;5094248;28;20177;-69
2021/03/24 01:04:33;;;;;;;19.30;13.70;;;6.50;99.90;;;;;;5093689;28;20192;-67
2021/03/24 01:06:59;;;;;;;18.10;13.40;;;6.60;99.90;;;;;;5094162;28;20267;-66
2021/03/24 01:09:25;;;;;;;17.77;14.40;;;6.50;99.90;;;;;;5093647;28;20196;-67
2021/03/24 01:11:50;;;;;;;17.37;12.47;;;6.50;99.90;;;;;;5093944;28;20172;-69
2021/03/24 01:14:16;;;;;;;18.63;14.47;;;6.50;99.90;;;;;;5092286;28;20283;-67
2021/03/24 01:16:41;;;;;;;17.10;13.00;;;6.50;99.90;;;;;;5093893;28;20173;-68
2021/03/24 01:19:07;;;;;;;17.97;14.10;;;6.40;99.90;;;;;;5093623;28;20204;-68
2021/03/24 01:21:33;;;;;;;18.63;13.73;;;6.40;99.90;;;;;;5093539;28;20201;-67
2021/03/24 01:23:58;;;;;;;20.30;14.57;;;6.40;99.90;;;;;;5093500;28;20196;-68
2021/03/24 01:26:24;;;;;;;16.10;11.70;;;6.30;99.90;;;;;;5092330;28;20220;-67
2021/03/24 01:28:57;;;;;;;16.63;14.03;;;6.40;99.90;;;;;;5096364;28;20322;-67
2021/03/24 01:31:24;;;;;;;16.15;13.02;;;6.30;99.90;;;;;;5097839;28;20230;-68
2021/03/24 01:33:50;;;;;;;17.55;13.25;;;6.40;99.90;;;;;;5097385;28;20681;-67
2021/03/24 01:36:15;;;;;;;15.57;12.87;;;6.40;99.90;;;;;;5096239;28;20214;-68
2021/03/24 01:38:41;;;;;;;17.60;14.40;;;6.40;99.90;;;;;;5096037;28;20283;-68
2021/03/24 01:41:06;;;;;;;19.50;13.70;;;6.40;99.90;;;;;;5097580;28;20173;-69
2021/03/24 01:43:34;;;;;;;19.27;13.93;;;6.30;99.90;;;;;;5097025;28;20231;-69
2021/03/24 01:46:42;;;;;;;16.30;12.07;;;6.30;99.90;;;;;;5097370;28;20629;-68
2021/03/24 01:49:17;;;;;;;17.05;13.60;;;6.30;99.90;;;;;;5054808;28;20205;-67
2021/03/24 01:51:55;;;;;;;19.67;13.55;;;6.40;99.90;;;;;;5107194;28;20597;-67
2021/03/24 01:54:27;;;;;;;19.15;14.65;;;6.40;99.90;;;;;;5097055;28;20279;-67
2021/03/24 01:56:59;;;;;;;20.42;13.35;;;6.30;99.90;;;;;;5097507;28;20672;-69
2021/03/24 01:59:25;;;;;;;19.38;13.15;;;6.40;99.90;;;;;;5097037;28;20203;-67
2021/03/24 02:01:53;;;;;;;18.03;13.10;;;6.40;99.90;;;;;;5097301;28;20185;-67
2021/03/24 02:04:19;;;;;;;15.95;12.90;;;6.40;99.90;;;;;;5096960;28;20189;-69
2021/03/24 02:07:00;;;;;;;20.43;12.40;;;6.40;99.90;;;;;;5096700;28;20216;-68
2021/03/24 02:09:37;;;;;;;15.98;12.23;;;6.40;99.90;;;;;;5096902;28;20196;-68
2021/03/24 02:12:16;;;;;;;19.38;12.27;;;6.40;99.90;;;;;;5097387;28;20176;-66
2021/03/24 02:14:49;;;;;;;16.95;13.18;;;6.40;99.90;;;;;;5096746;28;20530;-69
2021/03/24 02:17:16;;;;;;;15.73;12.63;;;6.40;99.90;;;;;;5097227;28;20519;-68
2021/03/24 02:20:04;;;;;;;17.17;13.45;;;6.40;99.90;;;;;;5095247;28;20203;-69
2021/03/24 02:22:43;;;;;;;18.40;12.27;;;6.40;99.90;;;;;;5096468;28;20212;-67
2021/03/24 02:25:32;;;;;;;14.77;12.23;;;6.30;99.90;;;;;;5095214;28;20176;-66
2021/03/24 02:28:01;;;;;;;18.05;13.93;;;6.30;99.90;;;;;;5096531;28;20212;-67
2021/03/24 02:30:31;;;;;;;21.00;14.15;;;6.30;99.90;;;;;;5096437;28;20221;-67
2021/03/24 02:33:18;;;;;;;15.88;12.90;;;6.30;99.90;;;;;;5096371;28;20200;-68
2021/03/24 02:35:51;;;;;;;19.27;14.35;;;6.30;99.90;;;;;;5096451;28;20177;-69
2021/03/24 02:38:20;;;;;;;17.00;12.98;;;6.20;99.90;;;;;;5096171;28;20211;-69
2021/03/24 02:40:46;;;;;;;18.48;14.15;;;6.20;99.90;;;;;;5095438;28;20172;-67
2021/03/24 02:43:13;;;;;;;17.70;12.75;;;6.20;99.90;;;;;;5096172;28;20601;-68
2021/03/24 02:45:42;;;;;;;16.95;12.65;;;6.20;99.90;;;;;;5094862;28;20232;-69
2021/03/24 02:48:14;;;;;;;16.40;12.98;;;6.20;99.90;;;;;;5096038;28;20199;-69
2021/03/24 02:50:43;;;;;;;15.82;11.77;;;6.20;99.90;;;;;;5096057;28;20249;-68
2021/03/24 02:53:09;;;;;;;17.05;12.95;;;6.30;99.90;;;;;;5095836;28;20598;-67
2021/03/24 02:55:38;;;;;;;17.27;13.25;;;6.20;99.90;;;;;;5096004;28;20188;-67
2021/03/24 02:58:04;;;;;;;17.75;13.13;;;6.30;99.90;;;;;;5095877;28;20196;-68
2021/03/24 03:00:29;;;;;;;20.40;13.27;;;6.30;99.90;;;;;;5095930;28;20230;-67
2021/03/24 03:03:00;;;;;;;17.00;13.43;;;6.20;99.90;;;;;;5095655;28;20420;-68
2021/03/24 03:05:34;;;;;;;19.63;14.10;;;6.20;99.90;;;;;;5095682;28;20224;-69
2021/03/24 03:08:44;;;;;;;17.23;12.63;;;6.20;99.90;;;;;;5095795;28;20195;-67
2021/03/24 03:11:31;;;;;;;18.85;13.23;;;6.20;99.90;;;;;;5093484;28;20204;-69
2021/03/24 03:14:03;;;;;;;18.58;13.05;;;6.20;99.90;;;;;;5094302;28;20188;-68
2021/03/24 03:16:40;;;;;;;19.67;15.05;;;6.20;99.90;;;;;;5095774;28;20535;-67
2021/03/24 03:19:22;;;;;;;20.52;15.90;;;6.20;99.90;;;;;;5094039;28;20191;-68
2021/03/24 03:21:52;;;;;;;21.65;16.00;;;6.20;99.90;;;;;;5095698;28;20638;-67
2021/03/24 03:24:22;;;;;;;17.17;13.15;;;6.10;99.90;;;;;;5095376;28;20287;-67
2021/03/24 03:26:50;;;;;;;17.75;13.40;;;6.10;99.90;;;;;;5094035;28;20595;-67
2021/03/24 03:29:18;;;;;;;19.30;14.05;;;6.10;99.90;;;;;;5095254;28;20196;-67
2021/03/24 03:31:47;;;;;;;19.30;12.48;;;6.00;99.90;;;;;;5095540;28;20259;-68
2021/03/24 03:34:17;;;;;;;17.42;13.02;;;6.00;99.90;;;;;;5095139;28;20181;-68
2021/03/24 03:36:46;;;;;;;20.15;13.15;;;6.00;99.90;;;;;;5093820;28;20630;-67
2021/03/24 03:39:16;;;;;;;17.50;12.73;;;6.00;99.90;;;;;;5095052;28;20602;-67
2021/03/24 03:41:43;;;;;;;20.70;13.02;;;6.00;99.90;;;;;;5095342;28;20180;-66
2021/03/24 03:44:10;;;;;;;18.83;13.57;;;6.00;99.90;;;;;;5094733;28;20236;-67
2021/03/24 03:46:41;;;;;;;20.23;14.43;;;6.00;99.90;;;;;;5095145;28;20542;-65
2021/03/24 03:49:07;;;;;;;19.63;14.10;;;6.10;99.90;;;;;;5094875;28;20188;-68
2021/03/24 03:51:35;;;;;;;17.80;13.23;;;6.10;99.90;;;;;;5094735;28;20597;-68
2021/03/24 03:54:15;;;;;;;18.67;13.65;;;6.10;99.90;;;;;;5094802;28;20459;-68
2021/03/24 03:57:04;;;;;;;20.13;13.93;;;6.10;99.90;;;;;;5095095;28;20172;-68
2021/03/24 03:59:42;;;;;;;20.75;14.38;;;6.10;99.90;;;;;;5093428;28;20201;-68
2021/03/24 04:02:14;;;;;;;19.98;14.02;;;6.10;99.90;;;;;;5095149;28;20176;-66
2021/03/24 04:04:50;;;;;;;19.30;14.50;;;6.10;99.90;;;;;;5094553;28;20230;-65
2021/03/24 04:07:24;;;;;;;18.65;14.30;;;6.10;99.90;;;;;;5095014;28;20636;-66
2021/03/24 04:09:54;;;;;;;20.60;14.40;;;6.10;99.90;;;;;;5094430;28;20229;-66
2021/03/24 04:12:21;;;;;;;19.90;14.23;;;6.10;99.90;;;;;;5093427;28;20184;-65
2021/03/24 04:14:48;;;;;;;20.60;14.00;;;6.10;99.90;;;;;;5094380;28;20191;-65
2021/03/24 04:17:22;;;;;;;23.13;14.95;;;6.10;99.90;;;;;;5094370;28;20180;-66
2021/03/24 04:19:51;;;;;;;22.42;15.50;;;6.00;99.90;;;;;;5094219;28;20211;-65
2021/03/24 04:22:21;;;;;;;22.83;14.80;;;6.00;99.90;;;;;;5094843;28;20281;-66
2021/03/24 04:24:52;;;;;;;21.45;14.40;;;6.00;99.90;;;;;;5094494;28;20197;-66
2021/03/24 04:27:22;;;;;;;21.00;14.75;;;6.00;99.90;;;;;;5093340;28;20224;-66
2021/03/24 04:30:03;;;;;;;24.20;17.02;;;6.00;99.90;;;;;;5092851;28;20252;-66
2021/03/24 04:32:28;;;;;;;23.17;15.50;;;6.00;99.90;;;;;;5093957;28;20661;-65
2021/03/24 04:34:54;;;;;;;23.50;17.10;;;6.00;99.90;;;;;;5094159;28;20173;-66
2021/03/24 04:37:37;;;;;;;21.90;15.30;;;6.00;99.90;;;;;;5094706;28;20287;-65
2021/03/24 04:40:06;;;;;;;22.70;16.23;;;6.10;99.90;;;;;;5094188;28;20164;-65
2021/03/24 04:42:55;;;;;;;27.17;16.45;;;6.10;99.90;;;;;;5093887;28;20180;-65
2021/03/24 04:45:39;;;;;;;24.20;17.05;;;6.10;99.90;;;;;;5086411;28;20307;-65
2021/03/24 04:48:18;;;;;;;25.90;16.90;;;6.30;99.90;;;;;;5093979;28;20203;-66
2021/03/24 04:51:07;;;;;;;21.77;15.57;;;6.50;99.90;;;;;;5094082;28;20195;-66
2021/03/24 04:53:45;;;;;;;27.60;17.38;;;6.60;99.90;;;;;;5093334;28;20212;-65
2021/03/24 04:56:12;;;;;;;26.40;17.10;;;6.50;99.90;;;;;;5093864;28;20660;-66
2021/03/24 04:58:42;;;;;;;25.20;17.27;;;6.50;99.90;;;;;;5092468;28;20224;-66
2021/03/24 05:01:35;;;;;;;23.40;16.20;;;6.50;99.90;;;;;;5092492;28;20206;-65
2021/03/24 05:04:12;;;;;;;24.73;16.17;;;6.50;99.90;;;;;;5099569;28;20693;-65
2021/03/24 05:06:46;;;;;;;23.00;15.50;;;6.60;99.90;;;;;;5100739;28;20227;-65
2021/03/24 05:09:11;;;;;;;24.20;15.57;;;6.60;99.90;;;;;;5099175;28;20276;-66
2021/03/24 05:11:43;;;;;;;26.00;16.10;;;6.70;99.90;;;;;;5100728;28;20176;-65
2021/03/24 05:14:15;;;;;;;23.10;16.05;;;6.80;99.90;;;;;;5100417;28;20245;-65
2021/03/24 05:16:44;;;;;;;22.98;15.43;;;6.70;99.90;;;;;;5100644;28;20695;-66
2021/03/24 05:19:22;;;;;;;21.23;15.27;;;6.80;99.90;;;;;;5100345;28;20203;-67
2021/03/24 05:21:54;;;;;;;22.63;15.20;;;7.30;99.90;;;;;;5100693;28;20168;-68
2021/03/24 05:24:40;;;;;;;25.08;16.55;;;8.20;99.90;;;;;;5100294;28;20563;-69
2021/03/24 05:27:15;;;;;;;22.70;15.73;;;8.10;99.90;;;;;;5099603;28;20212;-69
2021/03/24 05:29:53;;;;;;;21.10;15.60;;;7.70;99.90;;;;;;5100166;28;20191;-68
2021/03/24 05:32:26;;;;;;;19.83;14.32;;;7.70;99.90;;;;;;5100847;28;20201;-65
2021/03/24 05:34:55;;;;;;;26.67;17.05;;;8.00;99.90;;;;;;5078660;28;20560;-67
2021/03/24 05:37:27;;;;;;;26.73;15.88;;;8.50;99.90;;;;;;5097993;28;20185;-66
2021/03/24 05:40:03;;;;;;;19.70;13.85;;;9.00;99.90;;;;;;5098264;28;20596;-66
2021/03/24 05:43:09;;;;;;;22.88;15.95;;;9.30;99.90;;;;;;5098680;28;20183;-67
2021/03/24 05:46:31;;;;;;;22.15;15.35;;;9.60;99.90;;;;;;5073759;28;20765;-64
2021/03/24 05:49:13;;;;;;;23.25;15.65;;;9.60;99.90;;;;;;5043815;28;20220;-67
2021/03/24 05:51:54;;;;;;;23.08;15.20;;;9.80;99.90;;;;;;5042027;28;20594;-64
2021/03/24 05:54:37;;;;;;;22.25;15.38;;;9.90;99.90;;;;;;5074303;28;20200;-64
2021/03/24 05:57:30;;;;;;;20.35;14.60;;;10.00;99.90;;;;;;5100388;28;20265;-67
2021/03/24 06:00:21;;;;;;;20.52;14.98;;;10.10;99.90;;;;;;5099966;28;20179;-64
2021/03/24 06:02:55;;;;;;;22.83;16.60;;;10.20;99.90;;;;;;5098999;28;20608;-64
2021/03/24 06:05:42;;;;;;;24.48;15.30;;;10.20;99.90;;;;;;5098010;28;20228;-68
2021/03/24 06:08:26;;;;;;;26.45;16.13;;;10.30;99.90;;;;;;5098135;28;20208;-69
2021/03/24 06:11:00;;;;;;;26.08;18.85;;;10.40;99.90;;;;;;5090990;28;20188;-67
2021/03/24 06:13:57;;;;;;;40.33;28.90;;;10.40;99.90;;;;;;5099203;28;20280;-69
2021/03/24 06:17:00;;;;;;;30.30;22.02;;;8.90;99.90;;;;;;5093118;28;20553;-69
2021/03/24 06:19:47;;;;;;;25.67;18.63;;;8.10;99.90;;;;;;5096631;28;20192;-69
2021/03/24 06:22:24;;;;;;;22.40;16.48;;;7.70;99.90;;;;;;5097158;28;20505;-67
2021/03/24 06:25:10;;;;;;;25.13;17.52;;;7.40;99.90;;;;;;5096419;28;20192;-64
2021/03/24 06:27:59;;;;;;;45.95;25.77;;;7.30;99.90;;;;;;5095212;28;20212;-64
2021/03/24 06:30:35;;;;;;;43.95;24.48;;;7.30;99.90;;;;;;5095020;28;20207;-64
2021/03/24 06:33:20;;;;;;;31.55;20.35;;;7.20;99.90;;;;;;5096301;28;20316;-64
2021/03/24 06:35:51;;;;;;;42.30;24.25;;;6.90;99.90;;;;;;5096268;28;20173;-72
2021/03/24 06:38:34;;;;;;;60.17;29.35;;;6.60;99.90;;;;;;5096132;28;20252;-64
2021/03/24 06:41:03;;;;;;;33.78;21.02;;;6.60;99.90;;;;;;5095596;28;20218;-65
2021/03/24 06:43:47;;;;;;;27.17;18.52;;;6.60;99.90;;;;;;5095310;28;20214;-67
2021/03/24 06:46:27;;;;;;;31.02;20.38;;;6.50;99.90;;;;;;5094260;28;20269;-66
2021/03/24 06:49:15;;;;;;;24.58;16.65;;;6.60;99.90;;;;;;5090918;28;20251;-68
2021/03/24 06:52:18;;;;;;;25.00;17.10;;;6.60;99.90;;;;;;5085358;28;20734;-64
2021/03/24 06:55:10;;;;;;;26.35;17.58;;;6.60;99.90;;;;;;5073660;28;20196;-64
2021/03/24 06:57:55;;;;;;;25.17;17.83;;;6.60;99.90;;;;;;5070314;28;20211;-66
2021/03/24 07:00:29;;;;;;;29.42;21.02;;;6.60;99.90;;;;;;5090044;28;20218;-64
2021/03/24 07:03:08;;;;;;;27.02;19.60;;;6.70;99.90;;;;;;5083643;28;20544;-66
2021/03/24 07:06:35;;;;;;;25.25;17.13;;;6.60;99.90;;;;;;5085273;28;20282;-67
2021/03/24 07:09:15;;;;;;;22.13;16.55;;;6.80;99.90;;;;;;5032942;28;20221;-67
2021/03/24 07:11:56;;;;;;;29.42;19.42;;;6.90;99.90;;;;;;5088361;28;20224;-66
2021/03/24 07:15:07;;;;;;;33.42;21.15;;;6.90;99.90;;;;;;5094200;28;20212;-70
2021/03/24 07:18:03;;;;;;;30.30;19.08;;;6.90;99.90;;;;;;5095321;28;20653;-66
2021/03/24 07:20:50;;;;;;;70.13;33.85;;;7.00;99.90;;;;;;5095376;28;20185;-66
2021/03/24 07:23:36;;;;;;;45.35;25.75;;;7.00;99.90;;;;;;5092116;28;20227;-64
2021/03/24 07:26:23;;;;;;;36.38;21.77;;;6.90;99.90;;;;;;5089789;28;20227;-69
2021/03/24 07:29:30;;;;;;;44.30;24.42;;;6.90;99.90;;;;;;5091947;28;20705;-67
2021/03/24 07:32:25;;;;;;;46.90;26.33;;;6.90;99.90;;;;;;5046594;28;20194;-69
2021/03/24 07:34:59;;;;;;;32.58;19.58;;;6.70;99.90;;;;;;5049990;28;20206;-66
2021/03/24 07:37:46;;;;;;;46.38;24.30;;;6.60;99.90;;;;;;5068700;28;20193;-66
2021/03/24 07:40:20;;;;;;;60.28;28.90;;;6.40;99.90;;;;;;5092877;28;20163;-69
2021/03/24 07:43:23;;;;;;;58.53;30.58;;;6.40;99.90;;;;;;5092767;28;20571;-66
2021/03/24 07:46:16;;;;;;;43.45;24.00;;;6.40;99.90;;;;;;5089697;28;20250;-64
2021/03/24 07:48:59;;;;;;;44.80;23.98;;;6.70;99.90;;;;;;5092233;28;20192;-64
2021/03/24 07:51:43;;;;;;;48.47;25.42;;;6.60;99.90;;;;;;5089631;28;20188;-67
2021/03/24 07:54:21;;;;;;;51.50;24.88;;;6.60;99.90;;;;;;5084341;28;20204;-64
2021/03/24 07:57:16;;;;;;;35.05;20.25;;;6.60;99.90;;;;;;5094655;28;20184;-63
2021/03/24 07:59:50;;;;;;;41.67;22.60;;;6.60;99.90;;;;;;5089030;28;20227;-66
2021/03/24 08:02:34;;;;;;;32.58;18.58;;;6.60;99.90;;;;;;5086463;28;20184;-66
2021/03/24 08:05:26;;;;;;;32.78;20.67;;;6.60;99.90;;;;;;5084766;28;20638;-66
2021/03/24 08:08:09;;;;;;;39.30;22.05;;;6.60;99.90;;;;;;5091285;28;20227;-65
2021/03/24 08:11:16;;;;;;;73.20;35.50;;;6.60;99.90;;;;;;5091326;28;20571;-69
2021/03/24 08:13:50;;;;;;;33.95;20.08;;;6.50;99.90;;;;;;5046760;28;20226;-68
2021/03/24 08:16:50;;;;;;;40.63;20.65;;;6.60;99.90;;;;;;5081523;28;20238;-65
2021/03/24 08:19:34;;;;;;;28.83;18.20;;;6.50;99.90;;;;;;5089327;28;20291;-68
2021/03/24 08:22:17;;;;;;;39.83;20.85;;;6.60;99.90;;;;;;5098551;28;20509;-65
2021/03/24 08:25:03;;;;;;;29.73;17.95;;;6.40;99.90;;;;;;5093317;28;20223;-67
2021/03/24 08:27:44;;;;;;;28.98;17.95;;;6.40;99.90;;;;;;5088478;28;20212;-66
2021/03/24 08:30:16;;;;;;;24.95;17.20;;;6.40;99.90;;;;;;5089362;28;20668;-68
2021/03/24 08:33:15;;;;;;;24.45;16.10;;;6.40;99.90;;;;;;5093576;28;20188;-65
2021/03/24 08:36:03;;;;;;;18.85;15.35;;;6.40;99.90;;;;;;5093041;28;20189;-67
2021/03/24 08:38:51;;;;;;;20.63;14.80;;;6.40;99.90;;;;;;5090603;28;20282;-66
2021/03/24 08:42:01;;;;;;;25.83;19.52;;;6.40;99.90;;;;;;5091119;28;20213;-65
2021/03/24 08:44:39;;;;;;;24.95;18.20;;;6.40;99.90;;;;;;5092135;28;20250;-65
2021/03/24 08:47:21;;;;;;;17.55;14.02;;;6.20;99.90;;;;;;5099303;28;20216;-65
2021/03/24 08:49:50;;;;;;;20.58;16.50;;;6.20;99.90;;;;;;5095851;28;20226;-67
2021/03/24 08:52:42;;;;;;;19.65;15.38;;;6.30;99.90;;;;;;5097566;28;20206;-65
2021/03/24 08:55:30;;;;;;;23.63;18.20;;;6.20;99.90;;;;;;5096142;28;20268;-66
2021/03/24 08:58:01;;;;;;;21.20;15.77;;;6.40;99.90;;;;;;5099908;28;20294;-66
2021/03/24 09:00:47;;;;;;;26.80;18.50;;;6.40;99.90;;;;;;5093443;28;20271;-66
2021/03/24 09:03:22;;;;;;;24.08;19.25;;;6.30;99.90;;;;;;5099207;28;20565;-69
2021/03/24 09:06:07;;;;;;;26.92;18.45;;;6.30;99.90;;;;;;5090561;28;20188;-66
2021/03/24 09:09:01;;;;;;;19.73;15.95;;;6.40;99.90;;;;;;5091245;28;20725;-68
2021/03/24 09:11:48;;;;;;;22.63;16.17;;;6.40;99.90;;;;;;5094070;28;20189;-66
2021/03/24 09:14:37;;;;;;;22.67;17.30;;;6.20;99.90;;;;;;5091970;28;20245;-66
2021/03/24 09:17:22;;;;;;;13.77;12.27;;;6.30;99.90;;;;;;5092235;28;20661;-66
2021/03/24 09:19:59;;;;;;;18.52;13.52;;;6.40;99.90;;;;;;5093008;28;20223;-68
2021/03/24 09:22:58;;;;;;;16.33;13.55;;;6.40;99.90;;;;;;5089292;28;20188;-66
2021/03/24 09:25:38;;;;;;;12.48;11.02;;;6.40;99.90;;;;;;5086690;28;20169;-66
2021/03/24 09:28:37;;;;;;;21.42;15.75;;;6.40;99.90;;;;;;5091337;28;20216;-66
2021/03/24 09:31:42;;;;;;;15.80;12.93;;;6.50;99.90;;;;;;5092391;28;20180;-68
2021/03/24 09:34:32;;;;;;;14.07;10.75;;;6.40;99.90;;;;;;5077368;28;20573;-67
2021/03/24 09:37:02;;;;;;;12.18;10.88;;;6.40;99.90;;;;;;5090477;28;20191;-68
2021/03/24 09:39:30;;;;;;;15.70;11.27;;;6.50;99.90;;;;;;5087956;28;20200;-67
2021/03/24 09:42:02;;;;;;;13.80;10.18;;;6.50;99.90;;;;;;5074486;28;20181;-66
2021/03/24 09:44:41;;;;;;;11.43;9.18;;;6.50;99.90;;;;;;5094398;28;20564;-68
2021/03/24 09:47:30;;;;;;;10.57;8.15;;;6.30;99.90;;;;;;5089454;28;20257;-68
2021/03/24 09:50:11;;;;;;;11.00;8.13;;;6.40;99.90;;;;;;5093385;28;20227;-68
2021/03/24 09:52:48;;;;;;;13.15;8.07;;;6.40;99.90;;;;;;5091520;28;20188;-68
2021/03/24 09:55:22;;;;;;;11.98;8.20;;;6.40;99.90;;;;;;5094946;28;20188;-68
2021/03/24 09:58:28;;;;;;;11.85;8.80;;;6.50;99.90;;;;;;5092937;28;20342;-68
2021/03/24 10:01:15;;;;;;;10.10;8.00;;;6.50;99.90;;;;;;5096328;28;20210;-69
2021/03/24 10:04:05;;;;;;;11.27;8.90;;;6.60;99.90;;;;;;5096643;28;20286;-70
2021/03/24 10:06:59;;;;;;;9.30;7.85;;;6.50;99.90;;;;;;5092652;28;20236;-67
2021/03/24 10:09:24;;;;;;;10.15;7.68;;;6.50;99.90;;;;;;5088361;28;20612;-67
2021/03/24 10:12:02;;;;;;;10.73;7.57;;;6.60;99.90;;;;;;5096386;28;20180;-66
2021/03/24 10:14:43;;;;;;;8.65;7.40;;;6.80;99.90;;;;;;5095893;28;20200;-70
2021/03/24 10:17:19;;;;;;;8.30;6.30;;;6.80;99.90;;;;;;5093861;28;20246;-66
2021/03/24 10:19:49;;;;;;;8.50;6.95;;;6.80;99.90;;;;;;5090214;28;20262;-68
2021/03/24 10:22:22;;;;;;;6.70;6.03;;;6.70;99.90;;;;;;5094583;28;20652;-68
2021/03/24 10:25:09;;;;;;;7.38;5.97;;;6.70;99.90;;;;;;5091822;28;20224;-68
2021/03/24 10:27:35;;;;;;;6.32;5.72;;;6.90;99.90;;;;;;5089043;28;20216;-68
2021/03/24 10:30:24;;;;;;;8.38;6.68;;;6.80;99.90;;;;;;5093184;28;20553;-66
2021/03/24 10:32:59;;;;;;;6.68;6.03;;;6.70;99.90;;;;;;5107302;28;20681;-66
2021/03/24 10:35:34;;;;;;;8.60;6.70;;;6.70;99.90;;;;;;5094967;28;20191;-68
2021/03/24 10:38:42;;;;;;;6.95;6.20;;;6.70;99.90;;;;;;5099336;28;20212;-66
2021/03/24 10:41:36;;;;;;;7.30;6.40;;;6.70;99.90;;;;;;5094059;28;20195;-66
2021/03/24 10:44:05;;;;;;;9.05;6.40;;;6.80;99.90;;;;;;5092734;28;20224;-69
2021/03/24 10:46:43;;;;;;;6.35;5.63;;;6.80;99.90;;;;;;5096877;28;20211;-68
2021/03/24 10:49:35;;;;;;;7.75;6.85;;;6.70;99.90;;;;;;5102513;28;20243;-69
2021/03/24 10:52:03;;;;;;;8.80;7.35;;;6.70;99.90;;;;;;5094545;28;20653;-66
2021/03/24 10:54:33;;;;;;;7.45;5.20;;;6.80;99.90;;;;;;5102037;28;20552;-69
2021/03/24 10:57:24;;;;;;;7.45;6.20;;;6.90;99.90;;;;;;5093808;28;20715;-66
2021/03/24 11:00:04;;;;;;;10.05;6.57;;;7.00;99.90;;;;;;5092127;28;20196;-67
2021/03/24 11:02:37;;;;;;;6.63;6.03;;;6.90;99.90;;;;;;5097090;28;20184;-66
2021/03/24 11:05:13;;;;;;;8.65;7.55;;;6.90;99.90;;;;;;5099540;28;20285;-68
2021/03/24 11:07:51;;;;;;;9.15;7.90;;;6.90;99.90;;;;;;5098122;28;20215;-65
2021/03/24 11:10:36;;;;;;;8.95;7.28;;;7.00;99.90;;;;;;5108085;28;20253;-65
2021/03/24 11:13:27;;;;;;;8.52;6.50;;;7.00;99.90;;;;;;5089146;28;20223;-65
2021/03/24 11:15:56;;;;;;;8.57;6.85;;;7.00;99.90;;;;;;5081709;28;20635;-68
2021/03/24 11:18:32;;;;;;;7.50;6.18;;;7.10;99.90;;;;;;5088353;28;20291;-65
2021/03/24 11:21:26;;;;;;;7.32;5.75;;;7.10;99.90;;;;;;5086479;28;20184;-66
2021/03/24 11:23:53;;;;;;;7.80;6.55;;;7.20;99.90;;;;;;5076888;28;20321;-67
2021/03/24 11:26:31;;;;;;;5.35;4.85;;;7.10;99.90;;;;;;5085114;28;20212;-67
2021/03/24 11:29:01;;;;;;;6.95;4.90;;;7.20;99.90;;;;;;5090367;28;20199;-68
2021/03/24 11:31:54;;;;;;;5.78;5.10;;;7.20;99.90;;;;;;5093954;28;20600;-68
2021/03/24 11:34:26;;;;;;;6.53;5.93;;;7.30;99.90;;;;;;5090729;28;20567;-65
2021/03/24 11:37:00;;;;;;;6.13;4.95;;;7.40;99.90;;;;;;5088251;28;20184;-65
2021/03/24 11:39:32;;;;;;;5.47;4.95;;;7.50;99.90;;;;;;5092753;28;20226;-67
2021/03/24 11:42:17;;;;;;;6.50;4.85;;;7.60;99.90;;;;;;5094819;28;20176;-66
2021/03/24 11:44:46;;;;;;;5.38;4.45;;;7.60;99.90;;;;;;5096436;28;20274;-65
2021/03/24 11:47:34;;;;;;;5.93;3.88;;;7.70;99.90;;;;;;5082035;28;20249;-68
2021/03/24 11:50:21;;;;;;;5.95;5.00;;;7.70;99.90;;;;;;5084657;28;20173;-66
2021/03/24 11:53:17;;;;;;;7.65;5.07;;;7.90;99.90;;;;;;5093765;28;20889;-66
2021/03/24 11:56:13;;;;;;;6.18;4.55;;;7.80;99.90;;;;;;5100611;28;20583;-65
2021/03/24 11:59:03;;;;;;;4.65;4.18;;;8.10;99.90;;;;;;5085090;28;20203;-65
2021/03/24 12:02:01;;;;;;;4.88;4.38;;;8.20;99.90;;;;;;5089358;28;20645;-66
2021/03/24 12:04:30;;;;;;;4.78;4.25;;;8.00;99.90;;;;;;5068637;28;20223;-66
2021/03/24 12:07:17;;;;;;;5.88;4.88;;;8.10;99.90;;;;;;5107206;28;20212;-68
2021/03/24 12:09:43;;;;;;;6.05;5.15;;;8.30;99.90;;;;;;5097885;28;20208;-66
2021/03/24 12:12:09;;;;;;;6.17;5.67;;;8.30;99.90;;;;;;5092819;28;20180;-68
2021/03/24 12:14:36;;;;;;;7.33;6.63;;;8.50;99.90;;;;;;5093042;28;20200;-66
2021/03/24 12:17:22;;;;;;;5.18;3.80;;;8.70;99.90;;;;;;5092434;28;20214;-66
2021/03/24 12:19:48;;;;;;;5.70;4.03;;;8.50;99.90;;;;;;5087308;28;20199;-69
2021/03/24 12:22:20;;;;;;;9.55;7.35;;;8.40;99.90;;;;;;5101288;28;20198;-66
2021/03/24 12:24:47;;;;;;;5.25;4.75;;;8.40;99.90;;;;;;5100000;28;20203;-66
2021/03/24 12:27:24;;;;;;;10.48;7.65;;;8.50;99.90;;;;;;5098035;28;20243;-68
2021/03/24 12:30:16;;;;;;;11.73;8.70;;;8.50;99.90;;;;;;5092871;28;20331;-66
2021/03/24 12:32:42;;;;;;;8.50;7.50;;;8.60;99.90;;;;;;5077960;28;20192;-69
2021/03/24 12:35:23;;;;;;;10.60;7.97;;;8.80;99.90;;;;;;5098247;28;20175;-66
2021/03/24 12:38:00;;;;;;;7.18;5.75;;;8.70;99.90;;;;;;5100113;28;20439;-70
2021/03/24 12:40:26;;;;;;;7.57;6.78;;;9.00;99.90;;;;;;5095555;28;20188;-68
2021/03/24 12:43:05;;;;;;;9.63;8.68;;;9.00;99.90;;;;;;5099608;28;20543;-69
2021/03/24 12:45:42;;;;;;;17.35;15.57;;;9.00;99.90;;;;;;5089202;28;20228;-69
2021/03/24 12:48:21;;;;;;;7.20;5.80;;;9.20;99.90;;;;;;5082982;28;20215;-68
2021/03/24 12:51:17;;;;;;;6.57;5.97;;;9.40;99.90;;;;;;5092912;28;20180;-69
2021/03/24 12:53:55;;;;;;;8.75;5.70;;;9.60;99.90;;;;;;5072035;28;20236;-69
2021/03/24 12:56:39;;;;;;;7.85;7.00;;;10.10;99.90;;;;;;5087069;28;20183;-68
2021/03/24 12:59:32;;;;;;;8.95;6.93;;;10.20;99.90;;;;;;5091440;28;20200;-68
2021/03/24 13:02:19;;;;;;;9.57;6.40;;;10.30;99.90;;;;;;5091856;28;20181;-66
2021/03/24 13:05:00;;;;;;;6.95;5.95;;;10.60;99.90;;;;;;5086972;28;20219;-66
2021/03/24 13:07:34;;;;;;;7.32;5.50;;;10.90;99.90;;;;;;5093656;28;20216;-66
2021/03/24 13:10:27;;;;;;;6.50;5.90;;;11.00;99.90;;;;;;5094460;28;20211;-69
2021/03/24 13:13:12;;;;;;;12.55;9.00;;;11.20;99.90;;;;;;5092830;28;20196;-67
2021/03/24 13:15:54;;;;;;;10.55;7.85;;;11.40;99.90;;;;;;5093141;28;20168;-66
2021/03/24 13:18:50;;;;;;;5.70;5.18;;;11.60;99.90;;;;;;5091556;28;20192;-68
2021/03/24 13:21:24;;;;;;;6.57;5.00;;;11.80;99.90;;;;;;5091529;28;20645;-67
2021/03/24 13:24:01;;;;;;;9.27;6.90;;;11.70;97.30;;;;;;5090754;28;20209;-66
2021/03/24 13:26:38;;;;;;;5.32;4.82;;;11.90;97.10;;;;;;5094147;28;20253;-66
2021/03/24 13:29:15;;;;;;;5.88;5.28;;;12.10;95.70;;;;;;5095325;28;20275;-68
2021/03/24 13:32:13;;;;;;;7.40;6.70;;;12.40;94.50;;;;;;5093121;28;20212;-66
2021/03/24 13:34:38;;;;;;;8.15;6.40;;;12.00;95.50;;;;;;5097211;28;20202;-67
2021/03/24 13:37:04;;;;;;;8.47;7.67;;;12.10;95.40;;;;;;5097430;28;20184;-66